sensor_id;sensor_type;location;lat;lon;timestamp;pressure;altitude;pressure_sealevel;temperature;humidity
2785;BME280;57944;48.722;9.316;2023-01-28T00:01:33;98640.34;;;-0.13;100.00
2785;BME280;57944;48.722;9.316;2023-01-28T00:04:04;98633.88;;;-0.05;100.00
2785;BME280;57944;48.722;9.316;2023-01-28T00:06:37;98635.97;;;0.13;100.00
2785;BME280;57944;48.722;9.316;2023-01-28T00:09:07;98635.97;;;0.13;100.00
2785;BME280;57944;48.722;9.316;2023-01-28T00:11:37;98643.09;;;-0.05;100.00
2785;BME280;57944;48.722;9.316;2023-01-28T00:14:10;98632.44;;;0.04;100.00
2785;BME280;57944;48.722;9.316;2023-01-28T00:16:40;98625.16;;;0.12;100.00
2785;BME280;57944;48.722;9.316;2023-01-28T00:19:10;98635.13;;;-0.10;100.00
2785;BME280;57944;48.722;9.316;2023-01-28T00:21:43;98629.22;;;-0.33;100.00
2785;BME280;57944;48.722;9.316;2023-01-28T00:24:13;98628.38;;;-0.34;100.00
2785;BME280;57944;48.722;9.316;2023-01-28T00:26:44;98625.47;;;-0.28;100.00
2785;BME280;57944;48.722;9.316;2023-01-28T00:29:14;98618.53;;;-0.24;100.00
2785;BME280;57944;48.722;9.316;2023-01-28T00:31:45;98612.34;;;-0.31;100.00
2785;BME280;57944;48.722;9.316;2023-01-28T00:34:15;98618.63;;;-0.26;100.00
2785;BME280;57944;48.722;9.316;2023-01-28T00:36:48;98615.56;;;-0.29;100.00
2785;BME280;57944;48.722;9.316;2023-01-28T00:39:24;98612.31;;;-0.18;100.00
2785;BME280;57944;48.722;9.316;2023-01-28T00:41:55;98611.16;;;-0.14;100.00
2785;BME280;57944;48.722;9.316;2023-01-28T00:44:25;98613.25;;;-0.08;100.00
2785;BME280;57944;48.722;9.316;2023-01-28T00:46:56;98613.25;;;-0.08;100.00
2785;BME280;57944;48.722;9.316;2023-01-28T00:49:27;98611.13;;;-0.26;100.00
2785;BME280;57944;48.722;9.316;2023-01-28T00:52:00;98614.22;;;-0.22;100.00
2785;BME280;57944;48.722;9.316;2023-01-28T00:54:31;98603.56;;;-0.13;100.00
2785;BME280;57944;48.722;9.316;2023-01-28T00:57:03;98611.88;;;-0.12;100.00
2785;BME280;57944;48.722;9.316;2023-01-28T00:59:34;98611.88;;;-0.12;100.00
2785;BME280;57944;48.722;9.316;2023-01-28T01:02:04;98617.75;;;-0.25;100.00
2785;BME280;57944;48.722;9.316;2023-01-28T01:04:41;98610.81;;;-0.21;100.00
2785;BME280;57944;48.722;9.316;2023-01-28T01:07:28;98627.13;;;-0.15;100.00
2785;BME280;57944;48.722;9.316;2023-01-28T01:10:10;98616.31;;;-0.16;100.00
2785;BME280;57944;48.722;9.316;2023-01-28T01:12:42;98619.16;;;-0.09;100.00
2785;BME280;57944;48.722;9.316;2023-01-28T01:15:17;98616.03;;;0.00;100.00
2785;BME280;57944;48.722;9.316;2023-01-28T01:17:49;98616.66;;;-0.09;100.00
2785;BME280;57944;48.722;9.316;2023-01-28T01:20:22;98623.84;;;-0.05;100.00
2785;BME280;57944;48.722;9.316;2023-01-28T01:22:56;98616.88;;;-0.12;100.00
2785;BME280;57944;48.722;9.316;2023-01-28T01:25:26;98620.22;;;-0.01;100.00
2785;BME280;57944;48.722;9.316;2023-01-28T01:27:57;98621.09;;;-0.13;100.00
2785;BME280;57944;48.722;9.316;2023-01-28T01:30:27;98617.78;;;-0.13;100.00
2785;BME280;57944;48.722;9.316;2023-01-28T01:32:58;98620.94;;;-0.23;100.00
2785;BME280;57944;48.722;9.316;2023-01-28T01:35:28;98629.09;;;-0.32;100.00
2785;BME280;57944;48.722;9.316;2023-01-28T01:38:01;98624.56;;;-0.27;100.00
2785;BME280;57944;48.722;9.316;2023-01-28T01:40:32;98626.53;;;-0.19;100.00
2785;BME280;57944;48.722;9.316;2023-01-28T01:43:19;98629.94;;;-0.20;100.00
2785;BME280;57944;48.722;9.316;2023-01-28T01:45:56;98624.56;;;-0.27;100.00
2785;BME280;57944;48.722;9.316;2023-01-28T01:48:32;98631.97;;;-0.25;100.00
2785;BME280;57944;48.722;9.316;2023-01-28T01:51:07;98636.00;;;-0.11;100.00
2785;BME280;57944;48.722;9.316;2023-01-28T01:53:47;98641.72;;;-0.09;100.00
2785;BME280;57944;48.722;9.316;2023-01-28T01:56:24;98641.22;;;-0.14;100.00
2785;BME280;57944;48.722;9.316;2023-01-28T01:58:57;98630.38;;;-0.26;100.00
2785;BME280;57944;48.722;9.316;2023-01-28T02:01:31;98635.94;;;-0.23;100.00
2785;BME280;57944;48.722;9.316;2023-01-28T02:04:07;98644.16;;;-0.20;100.00
2785;BME280;57944;48.722;9.316;2023-01-28T02:06:41;98637.19;;;-0.28;100.00
2785;BME280;57944;48.722;9.316;2023-01-28T02:09:26;98638.00;;;-0.28;100.00
2785;BME280;57944;48.722;9.316;2023-01-28T02:12:02;98642.97;;;-0.04;100.00
2785;BME280;57944;48.722;9.316;2023-01-28T02:14:38;98638.72;;;-0.14;100.00
2785;BME280;57944;48.722;9.316;2023-01-28T02:17:12;98641.66;;;0.04;100.00
2785;BME280;57944;48.722;9.316;2023-01-28T02:19:57;98643.50;;;0.13;100.00
2785;BME280;57944;48.722;9.316;2023-01-28T02:23:14;98652.91;;;-0.02;100.00
2785;BME280;57944;48.722;9.316;2023-01-28T02:26:33;98644.00;;;-0.06;100.00
2785;BME280;57944;48.722;9.316;2023-01-28T02:29:20;98648.75;;;-0.14;100.00
2785;BME280;57944;48.722;9.316;2023-01-28T02:32:04;98640.91;;;0.14;100.00
2785;BME280;57944;48.722;9.316;2023-01-28T02:34:43;98642.47;;;0.15;100.00
2785;BME280;57944;48.722;9.316;2023-01-28T02:37:20;98640.91;;;0.14;100.00
2785;BME280;57944;48.722;9.316;2023-01-28T02:39:58;98640.19;;;0.12;100.00
2785;BME280;57944;48.722;9.316;2023-01-28T02:42:33;98643.19;;;0.17;100.00
2785;BME280;57944;48.722;9.316;2023-01-28T02:45:18;98651.59;;;0.16;100.00
2785;BME280;57944;48.722;9.316;2023-01-28T02:47:50;98641.47;;;0.18;100.00
2785;BME280;57944;48.722;9.316;2023-01-28T02:50:37;98641.34;;;0.19;100.00
2785;BME280;57944;48.722;9.316;2023-01-28T02:53:20;98648.41;;;0.14;100.00
2785;BME280;57944;48.722;9.316;2023-01-28T02:56:17;98643.91;;;0.31;100.00
2785;BME280;57944;48.722;9.316;2023-01-28T02:59:01;98640.44;;;0.20;100.00
2785;BME280;57944;48.722;9.316;2023-01-28T03:02:06;98643.84;;;0.19;100.00
2785;BME280;57944;48.722;9.316;2023-01-28T03:04:44;98652.94;;;0.09;100.00
2785;BME280;57944;48.722;9.316;2023-01-28T03:07:19;98651.09;;;0.00;100.00
2785;BME280;57944;48.722;9.316;2023-01-28T03:09:51;98660.00;;;0.04;100.00
2785;BME280;57944;48.722;9.316;2023-01-28T03:12:28;98653.59;;;0.00;100.00
2785;BME280;57944;48.722;9.316;2023-01-28T03:15:16;98661.13;;;0.00;100.00
2785;BME280;57944;48.722;9.316;2023-01-28T03:18:07;98659.03;;;-0.06;100.00
2785;BME280;57944;48.722;9.316;2023-01-28T03:21:00;98657.66;;;-0.10;100.00
2785;BME280;57944;48.722;9.316;2023-01-28T03:23:53;98658.97;;;0.07;100.00
2785;BME280;57944;48.722;9.316;2023-01-28T03:26:44;98656.34;;;0.08;100.00
2785;BME280;57944;48.722;9.316;2023-01-28T03:29:32;98655.00;;;0.15;100.00
2785;BME280;57944;48.722;9.316;2023-01-28T03:32:19;98655.00;;;0.15;100.00
2785;BME280;57944;48.722;9.316;2023-01-28T03:35:09;98649.44;;;0.12;100.00
2785;BME280;57944;48.722;9.316;2023-01-28T03:37:55;98653.00;;;-0.04;100.00
2785;BME280;57944;48.722;9.316;2023-01-28T03:40:27;98661.78;;;0.02;100.00
2785;BME280;57944;48.722;9.316;2023-01-28T03:42:58;98653.38;;;0.03;100.00
2785;BME280;57944;48.722;9.316;2023-01-28T03:45:32;98657.31;;;0.18;100.00
2785;BME280;57944;48.722;9.316;2023-01-28T03:48:05;98657.84;;;0.11;100.00
2785;BME280;57944;48.722;9.316;2023-01-28T03:50:38;98668.38;;;-0.08;100.00
2785;BME280;57944;48.722;9.316;2023-01-28T03:53:08;98670.38;;;0.11;100.00
2785;BME280;57944;48.722;9.316;2023-01-28T03:55:52;98672.09;;;0.10;100.00
2785;BME280;57944;48.722;9.316;2023-01-28T03:58:24;98677.31;;;0.07;100.00
2785;BME280;57944;48.722;9.316;2023-01-28T04:01:14;98669.19;;;-0.08;100.00
2785;BME280;57944;48.722;9.316;2023-01-28T04:03:44;98670.22;;;0.01;100.00
2785;BME280;57944;48.722;9.316;2023-01-28T04:06:22;98668.69;;;0.11;100.00
2785;BME280;57944;48.722;9.316;2023-01-28T04:09:18;98666.19;;;-0.13;100.00
2785;BME280;57944;48.722;9.316;2023-01-28T04:12:02;98663.56;;;-0.11;100.00
2785;BME280;57944;48.722;9.316;2023-01-28T04:14:38;98663.81;;;-0.03;100.00
2785;BME280;57944;48.722;9.316;2023-01-28T04:17:13;98673.19;;;-0.05;100.00
2785;BME280;57944;48.722;9.316;2023-01-28T04:19:45;98671.03;;;0.02;100.00
2785;BME280;57944;48.722;9.316;2023-01-28T04:22:19;98678.75;;;-0.02;100.00
2785;BME280;57944;48.722;9.316;2023-01-28T04:24:50;98673.78;;;-0.14;100.00
2785;BME280;57944;48.722;9.316;2023-01-28T04:27:20;98682.97;;;-0.02;100.00
2785;BME280;57944;48.722;9.316;2023-01-28T04:29:51;98688.78;;;-0.02;100.00
2785;BME280;57944;48.722;9.316;2023-01-28T04:32:45;98697.34;;;0.07;100.00
2785;BME280;57944;48.722;9.316;2023-01-28T04:35:24;98691.28;;;0.22;100.00
2785;BME280;57944;48.722;9.316;2023-01-28T04:38:04;98697.44;;;0.30;100.00
2785;BME280;57944;48.722;9.316;2023-01-28T04:40:49;98697.63;;;0.15;100.00
2785;BME280;57944;48.722;9.316;2023-01-28T04:43:29;98692.59;;;0.15;100.00
2785;BME280;57944;48.722;9.316;2023-01-28T04:46:18;98696.50;;;0.19;100.00
2785;BME280;57944;48.722;9.316;2023-01-28T04:49:01;98701.41;;;0.21;100.00
2785;BME280;57944;48.722;9.316;2023-01-28T04:51:49;98707.22;;;0.21;100.00
2785;BME280;57944;48.722;9.316;2023-01-28T04:54:33;98709.19;;;0.05;100.00
2785;BME280;57944;48.722;9.316;2023-01-28T04:57:05;98706.84;;;-0.09;100.00
2785;BME280;57944;48.722;9.316;2023-01-28T04:59:36;98708.97;;;0.08;100.00
2785;BME280;57944;48.722;9.316;2023-01-28T05:02:07;98707.22;;;0.21;100.00
2785;BME280;57944;48.722;9.316;2023-01-28T05:04:37;98706.78;;;0.28;100.00
2785;BME280;57944;48.722;9.316;2023-01-28T05:07:11;98714.25;;;0.16;100.00
2785;BME280;57944;48.722;9.316;2023-01-28T05:09:44;98709.41;;;0.02;100.00
2785;BME280;57944;48.722;9.316;2023-01-28T05:12:14;98704.63;;;-0.01;100.00
2785;BME280;57944;48.722;9.316;2023-01-28T05:14:47;98698.22;;;-0.05;100.00
2785;BME280;57944;48.722;9.316;2023-01-28T05:17:20;98694.84;;;-0.17;100.00
2785;BME280;57944;48.722;9.316;2023-01-28T05:19:50;98696.00;;;-0.34;100.00
2785;BME280;57944;48.722;9.316;2023-01-28T05:22:24;98701.69;;;-0.19;100.00
2785;BME280;57944;48.722;9.316;2023-01-28T05:25:15;98707.75;;;-0.10;100.00
2785;BME280;57944;48.722;9.316;2023-01-28T05:27:49;98708.88;;;-0.14;100.00
2785;BME280;57944;48.722;9.316;2023-01-28T05:30:21;98704.56;;;-0.12;100.00
2785;BME280;57944;48.722;9.316;2023-01-28T05:32:54;98706.22;;;0.00;100.00
2785;BME280;57944;48.722;9.316;2023-01-28T05:35:25;98706.94;;;0.13;100.00
2785;BME280;57944;48.722;9.316;2023-01-28T05:37:56;98709.19;;;0.29;100.00
2785;BME280;57944;48.722;9.316;2023-01-28T05:40:29;98708.66;;;0.37;100.00
2785;BME280;57944;48.722;9.316;2023-01-28T05:42:59;98716.66;;;0.42;100.00
2785;BME280;57944;48.722;9.316;2023-01-28T05:45:37;98713.19;;;0.08;100.00
2785;BME280;57944;48.722;9.316;2023-01-28T05:48:22;98715.06;;;0.17;100.00
2785;BME280;57944;48.722;9.316;2023-01-28T05:51:14;98711.66;;;0.18;100.00
2785;BME280;57944;48.722;9.316;2023-01-28T05:53:52;98712.13;;;0.23;100.00
2785;BME280;57944;48.722;9.316;2023-01-28T05:56:24;98719.00;;;0.08;100.00
2785;BME280;57944;48.722;9.316;2023-01-28T05:58:55;98714.72;;;0.21;100.00
2785;BME280;57944;48.722;9.316;2023-01-28T06:01:25;98713.28;;;0.30;100.00
2785;BME280;57944;48.722;9.316;2023-01-28T06:03:56;98718.59;;;0.14;100.00
2785;BME280;57944;48.722;9.316;2023-01-28T06:06:29;98729.91;;;0.20;100.00
2785;BME280;57944;48.722;9.316;2023-01-28T06:08:59;98723.56;;;0.03;100.00
2785;BME280;57944;48.722;9.316;2023-01-28T06:11:33;98735.66;;;0.09;100.00
2785;BME280;57944;48.722;9.316;2023-01-28T06:14:04;98731.97;;;0.02;100.00
2785;BME280;57944;48.722;9.316;2023-01-28T06:16:50;98724.78;;;-0.03;100.00
2785;BME280;57944;48.722;9.316;2023-01-28T06:19:25;98742.47;;;0.07;100.00
2785;BME280;57944;48.722;9.316;2023-01-28T06:21:56;98737.03;;;0.13;100.00
2785;BME280;57944;48.722;9.316;2023-01-28T06:24:26;98744.31;;;0.16;100.00
2785;BME280;57944;48.722;9.316;2023-01-28T06:26:59;98739.97;;;0.07;100.00
2785;BME280;57944;48.722;9.316;2023-01-28T06:29:30;98751.44;;;-0.02;100.00
2785;BME280;57944;48.722;9.316;2023-01-28T06:32:00;98755.16;;;-0.07;100.00
2785;BME280;57944;48.722;9.316;2023-01-28T06:34:30;98763.38;;;-0.05;100.00
2785;BME280;57944;48.722;9.316;2023-01-28T06:37:02;98763.97;;;-0.14;100.00
2785;BME280;57944;48.722;9.316;2023-01-28T06:39:32;98760.97;;;-0.07;100.00
2785;BME280;57944;48.722;9.316;2023-01-28T06:42:05;98767.19;;;-0.12;100.00
2785;BME280;57944;48.722;9.316;2023-01-28T06:44:36;98764.38;;;-0.08;100.00
2785;BME280;57944;48.722;9.316;2023-01-28T06:47:06;98771.63;;;0.08;100.00
2785;BME280;57944;48.722;9.316;2023-01-28T06:49:36;98774.25;;;0.07;100.00
2785;BME280;57944;48.722;9.316;2023-01-28T06:52:07;98779.94;;;-0.15;100.00
2785;BME280;57944;48.722;9.316;2023-01-28T06:54:37;98779.41;;;-0.08;100.00
2785;BME280;57944;48.722;9.316;2023-01-28T06:57:10;98783.22;;;-0.15;100.00
2785;BME280;57944;48.722;9.316;2023-01-28T06:59:40;98787.03;;;-0.09;100.00
2785;BME280;57944;48.722;9.316;2023-01-28T07:02:11;98789.66;;;-0.11;100.00
2785;BME280;57944;48.722;9.316;2023-01-28T07:04:41;98793.44;;;-0.05;100.00
2785;BME280;57944;48.722;9.316;2023-01-28T07:07:11;98788.00;;;0.01;100.00
2785;BME280;57944;48.722;9.316;2023-01-28T07:09:42;98787.88;;;0.03;100.00
2785;BME280;57944;48.722;9.316;2023-01-28T07:12:15;98787.63;;;0.18;100.00
2785;BME280;57944;48.722;9.316;2023-01-28T07:14:45;98791.22;;;0.03;100.00
2785;BME280;57944;48.722;9.316;2023-01-28T07:17:16;98801.25;;;0.03;100.00
2785;BME280;57944;48.722;9.316;2023-01-28T07:19:46;98796.44;;;0.00;100.00
2785;BME280;57944;48.722;9.316;2023-01-28T07:22:16;98793.06;;;0.12;100.00
2785;BME280;57944;48.722;9.316;2023-01-28T07:24:47;98806.09;;;0.17;100.00
2785;BME280;57944;48.722;9.316;2023-01-28T07:27:20;98802.69;;;0.18;100.00
2785;BME280;57944;48.722;9.316;2023-01-28T07:29:53;98798.50;;;0.30;100.00
2785;BME280;57944;48.722;9.316;2023-01-28T07:32:28;98800.72;;;0.35;100.00
2785;BME280;57944;48.722;9.316;2023-01-28T07:34:58;98815.31;;;0.41;100.00
2785;BME280;57944;48.722;9.316;2023-01-28T07:37:33;98817.34;;;0.36;100.00
2785;BME280;57944;48.722;9.316;2023-01-28T07:40:28;98815.59;;;0.73;100.00
2785;BME280;57944;48.722;9.316;2023-01-28T07:43:02;98815.66;;;0.60;100.00
2785;BME280;57944;48.722;9.316;2023-01-28T07:45:37;98818.91;;;0.74;100.00
2785;BME280;57944;48.722;9.316;2023-01-28T07:48:12;98811.59;;;0.71;100.00
2785;BME280;57944;48.722;9.316;2023-01-28T07:50:45;98818.41;;;0.69;100.00
2785;BME280;57944;48.722;9.316;2023-01-28T07:53:18;98817.13;;;0.87;100.00
2785;BME280;57944;48.722;9.316;2023-01-28T07:55:57;98814.88;;;0.95;100.00
2785;BME280;57944;48.722;9.316;2023-01-28T07:58:33;98821.50;;;1.07;100.00
2785;BME280;57944;48.722;9.316;2023-01-28T08:01:05;98820.22;;;1.02;100.00
2785;BME280;57944;48.722;9.316;2023-01-28T08:03:35;98826.66;;;1.06;100.00
2785;BME280;57944;48.722;9.316;2023-01-28T08:06:07;98822.84;;;1.00;100.00
2785;BME280;57944;48.722;9.316;2023-01-28T08:08:40;98838.19;;;1.20;100.00
2785;BME280;57944;48.722;9.316;2023-01-28T08:11:10;98836.47;;;1.09;100.00
2785;BME280;57944;48.722;9.316;2023-01-28T08:13:43;98839.22;;;1.17;100.00
2785;BME280;57944;48.722;9.316;2023-01-28T08:16:14;98835.38;;;1.00;100.00
2785;BME280;57944;48.722;9.316;2023-01-28T08:18:45;98837.03;;;1.13;100.00
2785;BME280;57944;48.722;9.316;2023-01-28T08:21:15;98838.31;;;1.29;100.00
2785;BME280;57944;48.722;9.316;2023-01-28T08:23:45;98833.69;;;1.01;100.00
2785;BME280;57944;48.722;9.316;2023-01-28T08:26:16;98838.84;;;1.10;100.00
2785;BME280;57944;48.722;9.316;2023-01-28T08:28:49;98839.53;;;1.13;100.00
2785;BME280;57944;48.722;9.316;2023-01-28T08:31:21;98836.13;;;1.25;100.00
2785;BME280;57944;48.722;9.316;2023-01-28T08:33:52;98843.03;;;1.34;100.00
2785;BME280;57944;48.722;9.316;2023-01-28T08:36:28;98841.66;;;1.41;100.00
2785;BME280;57944;48.722;9.316;2023-01-28T08:38:59;98849.63;;;1.35;100.00
2785;BME280;57944;48.722;9.316;2023-01-28T08:41:29;98847.78;;;1.26;100.00
2785;BME280;57944;48.722;9.316;2023-01-28T08:44:02;98852.44;;;1.19;100.00
2785;BME280;57944;48.722;9.316;2023-01-28T08:46:33;98850.19;;;1.39;100.00
2785;BME280;57944;48.722;9.316;2023-01-28T08:49:03;98852.16;;;1.35;100.00
2785;BME280;57944;48.722;9.316;2023-01-28T08:51:33;98855.84;;;1.53;100.00
2785;BME280;57944;48.722;9.316;2023-01-28T08:54:04;98854.69;;;1.69;100.00
2785;BME280;57944;48.722;9.316;2023-01-28T08:56:34;98848.97;;;1.67;100.00
2785;BME280;57944;48.722;9.316;2023-01-28T08:59:07;98851.06;;;1.84;100.00
2785;BME280;57944;48.722;9.316;2023-01-28T09:01:38;98851.25;;;2.15;100.00
2785;BME280;57944;48.722;9.316;2023-01-28T09:04:09;98856.72;;;2.09;100.00
2785;BME280;57944;48.722;9.316;2023-01-28T09:06:40;98866.44;;;2.24;100.00
2785;BME280;57944;48.722;9.316;2023-01-28T09:09:10;98853.72;;;2.37;100.00
2785;BME280;57944;48.722;9.316;2023-01-28T09:11:41;98869.66;;;2.59;100.00
2785;BME280;57944;48.722;9.316;2023-01-28T09:14:14;98861.91;;;2.62;100.00
2785;BME280;57944;48.722;9.316;2023-01-28T09:16:45;98858.44;;;2.63;100.00
2785;BME280;57944;48.722;9.316;2023-01-28T09:19:15;98865.84;;;2.76;100.00
2785;BME280;57944;48.722;9.316;2023-01-28T09:21:45;98869.97;;;2.98;100.00
2785;BME280;57944;48.722;9.316;2023-01-28T09:24:16;98864.56;;;2.81;100.00
2785;BME280;57944;48.722;9.316;2023-01-28T09:26:48;98876.81;;;3.07;100.00
2785;BME280;57944;48.722;9.316;2023-01-28T09:29:21;98872.31;;;3.52;100.00
2785;BME280;57944;48.722;9.316;2023-01-28T09:31:51;98885.72;;;3.74;100.00
2785;BME280;57944;48.722;9.316;2023-01-28T09:34:22;98887.00;;;3.47;100.00
2785;BME280;57944;48.722;9.316;2023-01-28T09:36:52;98888.25;;;3.53;100.00
2785;BME280;57944;48.722;9.316;2023-01-28T09:39:22;98880.84;;;3.61;100.00
2785;BME280;57944;48.722;9.316;2023-01-28T09:42:20;98875.47;;;3.24;100.00
2785;BME280;57944;48.722;9.316;2023-01-28T09:45:08;98879.53;;;3.57;100.00
2785;BME280;57944;48.722;9.316;2023-01-28T09:47:46;98891.47;;;3.86;100.00
2785;BME280;57944;48.722;9.316;2023-01-28T09:50:26;98892.19;;;3.25;100.00
2785;BME280;57944;48.722;9.316;2023-01-28T09:53:05;98895.94;;;3.30;100.00
2785;BME280;57944;48.722;9.316;2023-01-28T09:55:40;98897.41;;;3.54;100.00
2785;BME280;57944;48.722;9.316;2023-01-28T09:58:15;98902.81;;;3.28;100.00
2785;BME280;57944;48.722;9.316;2023-01-28T10:00:56;98891.63;;;3.63;100.00
2785;BME280;57944;48.722;9.316;2023-01-28T10:03:41;98894.16;;;3.94;100.00
2785;BME280;57944;48.722;9.316;2023-01-28T10:06:27;98897.34;;;3.44;100.00
2785;BME280;57944;48.722;9.316;2023-01-28T10:09:20;98897.84;;;3.38;100.00
2785;BME280;57944;48.722;9.316;2023-01-28T10:12:09;98893.66;;;3.48;100.00
2785;BME280;57944;48.722;9.316;2023-01-28T10:15:07;98900.03;;;3.31;100.00
2785;BME280;57944;48.722;9.316;2023-01-28T10:17:46;98889.69;;;2.60;100.00
2785;BME280;57944;48.722;9.316;2023-01-28T10:20:31;98883.69;;;2.40;100.00
2785;BME280;57944;48.722;9.316;2023-01-28T10:23:11;98888.06;;;2.16;100.00
2785;BME280;57944;48.722;9.316;2023-01-28T10:25:46;98890.97;;;2.43;100.00
2785;BME280;57944;48.722;9.316;2023-01-28T10:28:23;98885.09;;;2.65;100.00
2785;BME280;57944;48.722;9.316;2023-01-28T10:30:55;98880.88;;;2.87;100.00
2785;BME280;57944;48.722;9.316;2023-01-28T10:33:35;98878.50;;;2.85;100.00
2785;BME280;57944;48.722;9.316;2023-01-28T10:36:08;98880.81;;;3.09;100.00
2785;BME280;57944;48.722;9.316;2023-01-28T10:38:39;98886.25;;;2.94;100.00
2785;BME280;57944;48.722;9.316;2023-01-28T10:41:11;98876.72;;;2.76;100.00
2785;BME280;57944;48.722;9.316;2023-01-28T10:43:47;98868.88;;;2.90;100.00
2785;BME280;57944;48.722;9.316;2023-01-28T10:46:25;98874.34;;;2.96;100.00
2785;BME280;57944;48.722;9.316;2023-01-28T10:49:11;98872.09;;;2.93;100.00
2785;BME280;57944;48.722;9.316;2023-01-28T10:51:44;98870.75;;;2.77;100.00
2785;BME280;57944;48.722;9.316;2023-01-28T10:54:20;98865.44;;;2.59;100.00
2785;BME280;57944;48.722;9.316;2023-01-28T10:56:56;98868.09;;;2.46;100.00
2785;BME280;57944;48.722;9.316;2023-01-28T10:59:31;98868.97;;;2.68;100.00
2785;BME280;57944;48.722;9.316;2023-01-28T11:02:19;98873.72;;;2.82;100.00
2785;BME280;57944;48.722;9.316;2023-01-28T11:05:06;98868.16;;;3.00;100.00
2785;BME280;57944;48.722;9.316;2023-01-28T11:07:36;98872.44;;;3.09;100.00
2785;BME280;57944;48.722;9.316;2023-01-28T11:10:26;98878.59;;;3.16;100.00
2785;BME280;57944;48.722;9.316;2023-01-28T11:13:04;98878.72;;;2.94;100.00
2785;BME280;57944;48.722;9.316;2023-01-28T11:15:42;98882.31;;;3.01;100.00
2785;BME280;57944;48.722;9.316;2023-01-28T11:18:18;98879.34;;;3.07;100.00
2785;BME280;57944;48.722;9.316;2023-01-28T11:20:57;98882.00;;;3.26;100.00
2785;BME280;57944;48.722;9.316;2023-01-28T11:23:32;98878.19;;;3.32;100.00
2785;BME280;57944;48.722;9.316;2023-01-28T11:26:12;98870.66;;;3.42;100.00
2785;BME280;57944;48.722;9.316;2023-01-28T11:28:44;98878.09;;;3.64;100.00
2785;BME280;57944;48.722;9.316;2023-01-28T11:31:16;98890.56;;;3.45;100.00
2785;BME280;57944;48.722;9.316;2023-01-28T11:33:51;98885.34;;;2.95;100.00
2785;BME280;57944;48.722;9.316;2023-01-28T11:36:28;98892.84;;;3.06;100.00
2785;BME280;57944;48.722;9.316;2023-01-28T11:39:01;98886.41;;;3.34;100.00
2785;BME280;57944;48.722;9.316;2023-01-28T11:41:36;98886.53;;;3.32;100.00
2785;BME280;57944;48.722;9.316;2023-01-28T11:44:15;98889.34;;;3.39;100.00
2785;BME280;57944;48.722;9.316;2023-01-28T11:47:15;98892.78;;;3.90;100.00
2785;BME280;57944;48.722;9.316;2023-01-28T11:50:08;98895.13;;;3.30;100.00
2785;BME280;57944;48.722;9.316;2023-01-28T11:53:03;98886.75;;;3.08;100.00
2785;BME280;57944;48.722;9.316;2023-01-28T11:55:49;98887.94;;;3.25;100.00
2785;BME280;57944;48.722;9.316;2023-01-28T11:58:36;98885.72;;;3.11;100.00
2785;BME280;57944;48.722;9.316;2023-01-28T12:01:16;98887.19;;;2.93;100.00
2785;BME280;57944;48.722;9.316;2023-01-28T12:04:16;98879.00;;;2.79;100.00
2785;BME280;57944;48.722;9.316;2023-01-28T12:07:06;98880.03;;;2.33;100.00
2785;BME280;57944;48.722;9.316;2023-01-28T12:09:53;98880.72;;;2.24;100.00
2785;BME280;57944;48.722;9.316;2023-01-28T12:13:00;98872.13;;;2.38;100.00
2785;BME280;57944;48.722;9.316;2023-01-28T12:16:06;98878.66;;;2.29;100.00
2785;BME280;57944;48.722;9.316;2023-01-28T12:19:11;98877.63;;;2.32;100.00
2785;BME280;57944;48.722;9.316;2023-01-28T12:25:05;98874.94;;;2.56;100.00
2785;BME280;57944;48.722;9.316;2023-01-28T12:27:51;98875.88;;;2.43;100.00
2785;BME280;57944;48.722;9.316;2023-01-28T12:31:01;98882.78;;;2.19;100.00
2785;BME280;57944;48.722;9.316;2023-01-28T12:34:01;98877.63;;;2.32;100.00
2785;BME280;57944;48.722;9.316;2023-01-28T12:36:48;98878.22;;;2.24;100.00
2785;BME280;57944;48.722;9.316;2023-01-28T12:39:34;98882.34;;;2.03;100.00
2785;BME280;57944;48.722;9.316;2023-01-28T12:42:18;98888.38;;;2.00;100.00
2785;BME280;57944;48.722;9.316;2023-01-28T12:44:59;98882.69;;;2.20;100.00
2785;BME280;57944;48.722;9.316;2023-01-28T12:47:37;98880.50;;;2.27;100.00
2785;BME280;57944;48.722;9.316;2023-01-28T12:50:17;98884.38;;;2.42;100.00
2785;BME280;57944;48.722;9.316;2023-01-28T12:52:55;98889.28;;;2.33;100.00
2785;BME280;57944;48.722;9.316;2023-01-28T12:55:39;98878.06;;;2.26;100.00
2785;BME280;57944;48.722;9.316;2023-01-28T12:58:20;98873.53;;;2.19;100.00
2785;BME280;57944;48.722;9.316;2023-01-28T13:00:58;98871.59;;;2.12;100.00
2785;BME280;57944;48.722;9.316;2023-01-28T13:03:39;98876.63;;;2.00;100.00
2785;BME280;57944;48.722;9.316;2023-01-28T13:06:20;98869.66;;;1.93;100.00
2785;BME280;57944;48.722;9.316;2023-01-28T13:09:00;98872.75;;;1.96;100.00
2785;BME280;57944;48.722;9.316;2023-01-28T13:11:34;98874.09;;;2.00;100.00
2785;BME280;57944;48.722;9.316;2023-01-28T13:14:11;98868.16;;;2.13;100.00
2785;BME280;57944;48.722;9.316;2023-01-28T13:16:42;98866.66;;;2.21;100.00
2785;BME280;57944;48.722;9.316;2023-01-28T13:19:24;98868.63;;;2.07;100.00
2785;BME280;57944;48.722;9.316;2023-01-28T13:22:29;98873.66;;;2.07;100.00
2785;BME280;57944;48.722;9.316;2023-01-28T13:25:19;98881.88;;;2.09;100.00
2785;BME280;57944;48.722;9.316;2023-01-28T13:28:00;98872.97;;;2.16;100.00
2785;BME280;57944;48.722;9.316;2023-01-28T13:30:47;98872.84;;;2.17;100.00
2785;BME280;57944;48.722;9.316;2023-01-28T13:33:30;98874.13;;;2.12;100.00
2785;BME280;57944;48.722;9.316;2023-01-28T13:36:09;98876.69;;;2.44;100.00
2785;BME280;57944;48.722;9.316;2023-01-28T13:38:46;98868.31;;;2.55;100.00
2785;BME280;57944;48.722;9.316;2023-01-28T13:41:18;98875.75;;;2.88;100.00
2785;BME280;57944;48.722;9.316;2023-01-28T13:43:48;98871.59;;;2.99;100.00
2785;BME280;57944;48.722;9.316;2023-01-28T13:46:29;98877.84;;;3.25;100.00
2785;BME280;57944;48.722;9.316;2023-01-28T13:49:01;98871.47;;;3.21;100.00
2785;BME280;57944;48.722;9.316;2023-01-28T13:51:34;98876.66;;;3.41;100.00
2785;BME280;57944;48.722;9.316;2023-01-28T13:54:14;98868.84;;;3.74;100.00
2785;BME280;57944;48.722;9.316;2023-01-28T13:57:07;98876.00;;;3.69;100.00
2785;BME280;57944;48.722;9.316;2023-01-28T13:59:53;98879.59;;;3.04;100.00
2785;BME280;57944;48.722;9.316;2023-01-28T14:03:00;98883.09;;;2.80;100.00
2785;BME280;57944;48.722;9.316;2023-01-28T14:06:07;98884.22;;;2.87;100.00